sensor_id;sensor_type;location;lat;lon;timestamp;P1;durP1;ratioP1;P2;durP2;ratioP2
55148;SDS011;49539;48.160;11.530;2023-05-10T00:01:01;2.10;;;1.00;;
55148;SDS011;49539;48.160;11.530;2023-05-10T00:03:27;2.38;;;1.40;;
55148;SDS011;49539;48.160;11.530;2023-05-10T00:05:52;4.40;;;1.35;;
55148;SDS011;49539;48.160;11.530;2023-05-10T00:08:18;3.13;;;1.60;;
55148;SDS011;49539;48.160;11.530;2023-05-10T00:10:43;3.00;;;1.60;;
55148;SDS011;49539;48.160;11.530;2023-05-10T00:13:08;3.50;;;1.23;;
55148;SDS011;49539;48.160;11.530;2023-05-10T00:15:34;1.67;;;1.15;;
55148;SDS011;49539;48.160;11.530;2023-05-10T00:17:59;1.70;;;0.98;;
55148;SDS011;49539;48.160;11.530;2023-05-10T00:20:25;1.52;;;0.90;;
55148;SDS011;49539;48.160;11.530;2023-05-10T00:22:50;1.35;;;1.08;;
55148;SDS011;49539;48.160;11.530;2023-05-10T00:25:15;2.03;;;1.30;;
55148;SDS011;49539;48.160;11.530;2023-05-10T00:27:41;1.58;;;1.10;;
55148;SDS011;49539;48.160;11.530;2023-05-10T00:30:07;2.67;;;0.87;;
55148;SDS011;49539;48.160;11.530;2023-05-10T00:32:33;1.42;;;0.98;;
55148;SDS011;49539;48.160;11.530;2023-05-10T00:34:58;2.03;;;0.93;;
55148;SDS011;49539;48.160;11.530;2023-05-10T00:37:23;2.08;;;1.33;;
55148;SDS011;49539;48.160;11.530;2023-05-10T00:39:49;1.75;;;0.90;;
55148;SDS011;49539;48.160;11.530;2023-05-10T00:42:14;2.00;;;0.90;;
55148;SDS011;49539;48.160;11.530;2023-05-10T00:44:40;1.20;;;0.77;;
55148;SDS011;49539;48.160;11.530;2023-05-10T00:47:05;1.60;;;0.95;;
55148;SDS011;49539;48.160;11.530;2023-05-10T00:49:30;1.30;;;0.80;;
55148;SDS011;49539;48.160;11.530;2023-05-10T00:51:57;1.48;;;0.70;;
55148;SDS011;49539;48.160;11.530;2023-05-10T00:54:22;4.40;;;0.82;;
55148;SDS011;49539;48.160;11.530;2023-05-10T00:56:47;0.95;;;0.70;;
55148;SDS011;49539;48.160;11.530;2023-05-10T00:59:17;0.95;;;0.57;;
55148;SDS011;49539;48.160;11.530;2023-05-10T01:01:43;1.88;;;1.00;;
55148;SDS011;49539;48.160;11.530;2023-05-10T01:04:09;1.38;;;0.90;;
55148;SDS011;49539;48.160;11.530;2023-05-10T01:06:36;1.35;;;0.80;;
55148;SDS011;49539;48.160;11.530;2023-05-10T01:09:01;1.20;;;0.80;;
55148;SDS011;49539;48.160;11.530;2023-05-10T01:11:27;0.88;;;0.70;;
55148;SDS011;49539;48.160;11.530;2023-05-10T01:13:55;4.47;;;1.02;;
55148;SDS011;49539;48.160;11.530;2023-05-10T01:16:21;1.25;;;0.80;;
55148;SDS011;49539;48.160;11.530;2023-05-10T01:18:47;1.50;;;0.80;;
55148;SDS011;49539;48.160;11.530;2023-05-10T01:34:47;2.60;;;0.85;;
55148;SDS011;49539;48.160;11.530;2023-05-10T01:37:15;1.10;;;0.55;;
55148;SDS011;49539;48.160;11.530;2023-05-10T01:39:47;0.40;;;0.40;;
55148;SDS011;49539;48.160;11.530;2023-05-10T01:42:16;0.95;;;0.52;;
55148;SDS011;49539;48.160;11.530;2023-05-10T01:44:45;0.90;;;0.60;;
55148;SDS011;49539;48.160;11.530;2023-05-10T01:47:17;1.35;;;0.60;;
55148;SDS011;49539;48.160;11.530;2023-05-10T01:49:45;1.40;;;0.60;;
55148;SDS011;49539;48.160;11.530;2023-05-10T01:52:14;1.10;;;0.50;;
55148;SDS011;49539;48.160;11.530;2023-05-10T01:54:41;1.05;;;0.75;;
55148;SDS011;49539;48.160;11.530;2023-05-10T01:57:07;1.23;;;0.70;;
55148;SDS011;49539;48.160;11.530;2023-05-10T01:59:35;0.80;;;0.60;;
55148;SDS011;49539;48.160;11.530;2023-05-10T02:02:02;0.70;;;0.40;;
55148;SDS011;49539;48.160;11.530;2023-05-10T02:04:28;1.08;;;0.70;;
55148;SDS011;49539;48.160;11.530;2023-05-10T02:06:53;0.80;;;0.70;;
55148;SDS011;49539;48.160;11.530;2023-05-10T02:09:20;1.40;;;0.50;;
55148;SDS011;49539;48.160;11.530;2023-05-10T02:11:46;1.52;;;0.50;;
55148;SDS011;49539;48.160;11.530;2023-05-10T02:14:12;0.55;;;0.40;;
55148;SDS011;49539;48.160;11.530;2023-05-10T02:16:39;1.23;;;0.60;;
55148;SDS011;49539;48.160;11.530;2023-05-10T02:19:05;1.70;;;0.80;;
55148;SDS011;49539;48.160;11.530;2023-05-10T02:21:34;3.55;;;0.45;;
55148;SDS011;49539;48.160;11.530;2023-05-10T02:24:01;1.48;;;0.70;;
55148;SDS011;49539;48.160;11.530;2023-05-10T02:26:31;2.40;;;0.68;;
55148;SDS011;49539;48.160;11.530;2023-05-10T02:28:57;0.50;;;0.40;;
55148;SDS011;49539;48.160;11.530;2023-05-10T02:31:23;2.42;;;0.90;;
55148;SDS011;49539;48.160;11.530;2023-05-10T02:33:48;0.80;;;0.40;;
55148;SDS011;49539;48.160;11.530;2023-05-10T02:36:14;0.50;;;0.40;;
55148;SDS011;49539;48.160;11.530;2023-05-10T02:38:40;1.00;;;0.50;;
55148;SDS011;49539;48.160;11.530;2023-05-10T02:41:06;1.02;;;0.50;;
55148;SDS011;49539;48.160;11.530;2023-05-10T02:43:35;1.52;;;0.80;;
55148;SDS011;49539;48.160;11.530;2023-05-10T02:46:01;1.08;;;0.50;;
55148;SDS011;49539;48.160;11.530;2023-05-10T02:48:29;2.95;;;0.52;;
55148;SDS011;49539;48.160;11.530;2023-05-10T02:50:54;1.13;;;0.50;;
55148;SDS011;49539;48.160;11.530;2023-05-10T02:53:23;2.55;;;0.50;;
55148;SDS011;49539;48.160;11.530;2023-05-10T02:55:49;3.85;;;0.90;;
55148;SDS011;49539;48.160;11.530;2023-05-10T02:58:15;0.93;;;0.63;;
55148;SDS011;49539;48.160;11.530;2023-05-10T03:00:41;0.65;;;0.50;;
55148;SDS011;49539;48.160;11.530;2023-05-10T03:03:06;1.00;;;0.40;;
55148;SDS011;49539;48.160;11.530;2023-05-10T03:05:32;1.00;;;0.50;;
55148;SDS011;49539;48.160;11.530;2023-05-10T03:07:58;0.50;;;0.50;;
55148;SDS011;49539;48.160;11.530;2023-05-10T03:10:27;0.50;;;0.40;;
55148;SDS011;49539;48.160;11.530;2023-05-10T03:20:47;1.35;;;0.80;;
55148;SDS011;49539;48.160;11.530;2023-05-10T03:25:39;0.52;;;0.52;;
55148;SDS011;49539;48.160;11.530;2023-05-10T03:28:05;1.48;;;0.65;;
55148;SDS011;49539;48.160;11.530;2023-05-10T03:30:31;1.00;;;0.60;;
55148;SDS011;49539;48.160;11.530;2023-05-10T03:32:56;1.23;;;0.60;;
55148;SDS011;49539;48.160;11.530;2023-05-10T03:35:22;0.50;;;0.40;;
55148;SDS011;49539;48.160;11.530;2023-05-10T03:37:48;0.55;;;0.50;;
55148;SDS011;49539;48.160;11.530;2023-05-10T03:40:14;0.52;;;0.50;;
55148;SDS011;49539;48.160;11.530;2023-05-10T03:42:39;0.82;;;0.50;;
55148;SDS011;49539;48.160;11.530;2023-05-10T03:45:05;0.68;;;0.45;;
55148;SDS011;49539;48.160;11.530;2023-05-10T03:47:31;2.40;;;0.70;;
55148;SDS011;49539;48.160;11.530;2023-05-10T03:49:56;1.50;;;0.50;;
55148;SDS011;49539;48.160;11.530;2023-05-10T03:52:21;0.60;;;0.60;;
55148;SDS011;49539;48.160;11.530;2023-05-10T03:54:47;0.47;;;0.43;;
55148;SDS011;49539;48.160;11.530;2023-05-10T03:57:12;1.00;;;0.90;;
55148;SDS011;49539;48.160;11.530;2023-05-10T03:59:37;0.52;;;0.52;;
55148;SDS011;49539;48.160;11.530;2023-05-10T04:02:03;0.57;;;0.40;;
55148;SDS011;49539;48.160;11.530;2023-05-10T04:04:28;0.90;;;0.60;;
55148;SDS011;49539;48.160;11.530;2023-05-10T04:06:54;0.93;;;0.50;;
55148;SDS011;49539;48.160;11.530;2023-05-10T04:09:20;0.43;;;0.43;;
55148;SDS011;49539;48.160;11.530;2023-05-10T04:11:45;0.85;;;0.55;;
55148;SDS011;49539;48.160;11.530;2023-05-10T04:14:10;0.88;;;0.60;;
55148;SDS011;49539;48.160;11.530;2023-05-10T04:16:36;0.63;;;0.50;;
55148;SDS011;49539;48.160;11.530;2023-05-10T04:19:01;0.80;;;0.68;;
55148;SDS011;49539;48.160;11.530;2023-05-10T04:21:27;0.35;;;0.35;;
55148;SDS011;49539;48.160;11.530;2023-05-10T04:23:52;0.93;;;0.63;;
55148;SDS011;49539;48.160;11.530;2023-05-10T04:26:17;0.60;;;0.35;;
55148;SDS011;49539;48.160;11.530;2023-05-10T04:28:43;1.27;;;0.60;;
55148;SDS011;49539;48.160;11.530;2023-05-10T04:31:09;1.17;;;0.50;;
55148;SDS011;49539;48.160;11.530;2023-05-10T04:33:34;0.75;;;0.50;;
55148;SDS011;49539;48.160;11.530;2023-05-10T04:36:00;1.98;;;0.77;;
55148;SDS011;49539;48.160;11.530;2023-05-10T04:38:27;1.48;;;0.70;;
55148;SDS011;49539;48.160;11.530;2023-05-10T04:40:53;0.88;;;0.47;;
55148;SDS011;49539;48.160;11.530;2023-05-10T04:43:18;0.90;;;0.43;;
55148;SDS011;49539;48.160;11.530;2023-05-10T04:45:44;1.83;;;0.50;;
55148;SDS011;49539;48.160;11.530;2023-05-10T04:48:09;0.77;;;0.50;;
55148;SDS011;49539;48.160;11.530;2023-05-10T04:50:35;1.88;;;0.43;;
55148;SDS011;49539;48.160;11.530;2023-05-10T04:53:00;1.00;;;0.60;;
55148;SDS011;49539;48.160;11.530;2023-05-10T04:55:26;1.33;;;0.60;;
55148;SDS011;49539;48.160;11.530;2023-05-10T04:57:52;0.60;;;0.35;;
55148;SDS011;49539;48.160;11.530;2023-05-10T05:00:17;0.73;;;0.47;;
55148;SDS011;49539;48.160;11.530;2023-05-10T05:02:43;0.70;;;0.60;;
55148;SDS011;49539;48.160;11.530;2023-05-10T05:05:12;0.85;;;0.50;;
55148;SDS011;49539;48.160;11.530;2023-05-10T05:07:37;2.60;;;0.85;;
55148;SDS011;49539;48.160;11.530;2023-05-10T05:10:03;0.90;;;0.60;;
55148;SDS011;49539;48.160;11.530;2023-05-10T05:12:29;0.70;;;0.55;;
55148;SDS011;49539;48.160;11.530;2023-05-10T05:14:54;0.82;;;0.40;;
55148;SDS011;49539;48.160;11.530;2023-05-10T05:17:20;2.38;;;0.68;;
55148;SDS011;49539;48.160;11.530;2023-05-10T05:19:45;1.13;;;0.60;;
55148;SDS011;49539;48.160;11.530;2023-05-10T05:22:10;1.42;;;0.50;;
55148;SDS011;49539;48.160;11.530;2023-05-10T05:24:36;0.85;;;0.73;;
55148;SDS011;49539;48.160;11.530;2023-05-10T05:27:03;0.77;;;0.40;;
55148;SDS011;49539;48.160;11.530;2023-05-10T05:29:28;2.30;;;0.65;;
55148;SDS011;49539;48.160;11.530;2023-05-10T05:31:53;0.70;;;0.60;;
55148;SDS011;49539;48.160;11.530;2023-05-10T05:34:19;1.95;;;0.60;;
55148;SDS011;49539;48.160;11.530;2023-05-10T05:36:45;1.40;;;0.77;;
55148;SDS011;49539;48.160;11.530;2023-05-10T05:39:10;0.70;;;0.50;;
55148;SDS011;49539;48.160;11.530;2023-05-10T05:41:36;2.80;;;0.88;;
55148;SDS011;49539;48.160;11.530;2023-05-10T05:44:01;1.98;;;0.75;;
55148;SDS011;49539;48.160;11.530;2023-05-10T05:46:26;0.73;;;0.40;;
55148;SDS011;49539;48.160;11.530;2023-05-10T05:48:52;0.90;;;0.57;;
55148;SDS011;49539;48.160;11.530;2023-05-10T05:51:17;1.23;;;0.57;;
55148;SDS011;49539;48.160;11.530;2023-05-10T05:53:42;1.92;;;0.50;;
55148;SDS011;49539;48.160;11.530;2023-05-10T05:56:08;1.38;;;0.60;;
55148;SDS011;49539;48.160;11.530;2023-05-10T05:58:34;4.25;;;0.77;;
55148;SDS011;49539;48.160;11.530;2023-05-10T06:00:59;0.68;;;0.52;;
55148;SDS011;49539;48.160;11.530;2023-05-10T06:03:25;2.15;;;0.50;;
55148;SDS011;49539;48.160;11.530;2023-05-10T06:05:50;1.65;;;0.40;;
55148;SDS011;49539;48.160;11.530;2023-05-10T06:08:16;0.70;;;0.50;;
55148;SDS011;49539;48.160;11.530;2023-05-10T06:10:41;0.73;;;0.60;;
55148;SDS011;49539;48.160;11.530;2023-05-10T06:13:06;1.75;;;0.77;;
55148;SDS011;49539;48.160;11.530;2023-05-10T06:15:32;2.83;;;0.60;;
55148;SDS011;49539;48.160;11.530;2023-05-10T06:17:57;1.02;;;0.60;;
55148;SDS011;49539;48.160;11.530;2023-05-10T06:20:23;1.25;;;0.80;;
55148;SDS011;49539;48.160;11.530;2023-05-10T06:22:48;1.20;;;0.60;;
55148;SDS011;49539;48.160;11.530;2023-05-10T06:25:13;1.42;;;0.77;;
55148;SDS011;49539;48.160;11.530;2023-05-10T06:27:39;1.52;;;0.80;;
55148;SDS011;49539;48.160;11.530;2023-05-10T06:30:05;1.75;;;0.88;;
55148;SDS011;49539;48.160;11.530;2023-05-10T06:32:30;1.33;;;0.50;;
55148;SDS011;49539;48.160;11.530;2023-05-10T06:34:56;2.08;;;0.82;;
55148;SDS011;49539;48.160;11.530;2023-05-10T06:37:21;1.25;;;0.95;;
55148;SDS011;49539;48.160;11.530;2023-05-10T06:39:46;1.17;;;0.73;;
55148;SDS011;49539;48.160;11.530;2023-05-10T06:42:11;1.63;;;0.88;;
55148;SDS011;49539;48.160;11.530;2023-05-10T06:44:37;1.27;;;0.90;;
55148;SDS011;49539;48.160;11.530;2023-05-10T06:47:02;1.73;;;0.93;;
55148;SDS011;49539;48.160;11.530;2023-05-10T06:49:28;1.27;;;0.70;;
55148;SDS011;49539;48.160;11.530;2023-05-10T06:51:53;4.10;;;0.90;;
55148;SDS011;49539;48.160;11.530;2023-05-10T06:54:18;1.15;;;0.75;;
55148;SDS011;49539;48.160;11.530;2023-05-10T06:56:44;2.00;;;0.63;;
55148;SDS011;49539;48.160;11.530;2023-05-10T06:59:09;1.40;;;0.90;;
55148;SDS011;49539;48.160;11.530;2023-05-10T07:01:35;1.70;;;0.82;;
55148;SDS011;49539;48.160;11.530;2023-05-10T07:04:00;1.98;;;0.80;;
55148;SDS011;49539;48.160;11.530;2023-05-10T07:06:25;1.37;;;0.70;;
55148;SDS011;49539;48.160;11.530;2023-05-10T07:08:51;1.70;;;0.93;;
55148;SDS011;49539;48.160;11.530;2023-05-10T07:11:17;1.25;;;0.90;;
55148;SDS011;49539;48.160;11.530;2023-05-10T07:13:43;1.45;;;0.88;;
55148;SDS011;49539;48.160;11.530;2023-05-10T07:16:10;2.28;;;1.05;;
55148;SDS011;49539;48.160;11.530;2023-05-10T07:18:36;2.90;;;1.00;;
55148;SDS011;49539;48.160;11.530;2023-05-10T07:21:01;2.38;;;1.15;;
55148;SDS011;49539;48.160;11.530;2023-05-10T07:23:26;2.15;;;0.90;;
55148;SDS011;49539;48.160;11.530;2023-05-10T07:25:52;2.20;;;0.98;;
55148;SDS011;49539;48.160;11.530;2023-05-10T07:28:18;3.33;;;1.40;;
55148;SDS011;49539;48.160;11.530;2023-05-10T07:30:43;3.72;;;1.10;;
55148;SDS011;49539;48.160;11.530;2023-05-10T07:33:09;1.33;;;1.00;;
55148;SDS011;49539;48.160;11.530;2023-05-10T07:35:35;1.15;;;0.77;;
55148;SDS011;49539;48.160;11.530;2023-05-10T07:38:00;1.10;;;0.80;;
55148;SDS011;49539;48.160;11.530;2023-05-10T07:40:26;3.40;;;1.00;;
55148;SDS011;49539;48.160;11.530;2023-05-10T07:42:51;1.85;;;1.00;;
55148;SDS011;49539;48.160;11.530;2023-05-10T07:45:17;1.30;;;0.60;;
55148;SDS011;49539;48.160;11.530;2023-05-10T07:47:43;1.50;;;0.80;;
55148;SDS011;49539;48.160;11.530;2023-05-10T07:50:09;1.35;;;0.80;;
55148;SDS011;49539;48.160;11.530;2023-05-10T07:52:35;1.27;;;0.82;;
55148;SDS011;49539;48.160;11.530;2023-05-10T07:55:00;1.48;;;0.90;;
55148;SDS011;49539;48.160;11.530;2023-05-10T07:57:25;1.40;;;0.70;;
55148;SDS011;49539;48.160;11.530;2023-05-10T07:59:51;1.20;;;0.80;;
55148;SDS011;49539;48.160;11.530;2023-05-10T08:02:16;1.50;;;0.90;;
55148;SDS011;49539;48.160;11.530;2023-05-10T08:04:42;2.20;;;1.00;;
55148;SDS011;49539;48.160;11.530;2023-05-10T08:07:08;3.50;;;1.05;;
55148;SDS011;49539;48.160;11.530;2023-05-10T08:09:34;1.40;;;0.90;;
55148;SDS011;49539;48.160;11.530;2023-05-10T08:11:59;0.88;;;0.60;;
55148;SDS011;49539;48.160;11.530;2023-05-10T08:14:25;2.10;;;0.73;;
55148;SDS011;49539;48.160;11.530;2023-05-10T08:16:51;0.95;;;0.65;;
55148;SDS011;49539;48.160;11.530;2023-05-10T08:19:16;1.33;;;0.70;;
55148;SDS011;49539;48.160;11.530;2023-05-10T08:21:44;3.30;;;1.08;;
55148;SDS011;49539;48.160;11.530;2023-05-10T08:24:10;2.67;;;0.88;;
55148;SDS011;49539;48.160;11.530;2023-05-10T08:26:35;2.20;;;0.90;;
55148;SDS011;49539;48.160;11.530;2023-05-10T08:29:01;1.52;;;0.65;;
55148;SDS011;49539;48.160;11.530;2023-05-10T08:31:26;0.93;;;0.53;;
55148;SDS011;49539;48.160;11.530;2023-05-10T08:33:51;3.92;;;1.02;;
55148;SDS011;49539;48.160;11.530;2023-05-10T08:36:17;0.63;;;0.50;;
55148;SDS011;49539;48.160;11.530;2023-05-10T08:38:46;1.63;;;0.98;;
55148;SDS011;49539;48.160;11.530;2023-05-10T08:41:12;2.15;;;0.65;;
55148;SDS011;49539;48.160;11.530;2023-05-10T08:43:37;0.73;;;0.50;;
55148;SDS011;49539;48.160;11.530;2023-05-10T08:46:03;1.30;;;0.75;;
55148;SDS011;49539;48.160;11.530;2023-05-10T08:48:35;1.27;;;0.60;;
55148;SDS011;49539;48.160;11.530;2023-05-10T08:51:01;2.83;;;0.77;;
55148;SDS011;49539;48.160;11.530;2023-05-10T08:53:28;2.00;;;0.85;;
55148;SDS011;49539;48.160;11.530;2023-05-10T08:55:56;2.33;;;0.93;;
55148;SDS011;49539;48.160;11.530;2023-05-10T08:58:22;1.75;;;0.73;;
55148;SDS011;49539;48.160;11.530;2023-05-10T09:00:48;0.63;;;0.60;;
55148;SDS011;49539;48.160;11.530;2023-05-10T09:03:14;1.27;;;0.70;;
55148;SDS011;49539;48.160;11.530;2023-05-10T09:05:40;0.57;;;0.45;;
55148;SDS011;49539;48.160;11.530;2023-05-10T09:08:06;0.82;;;0.55;;
55148;SDS011;49539;48.160;11.530;2023-05-10T09:10:37;1.20;;;0.70;;
55148;SDS011;49539;48.160;11.530;2023-05-10T09:13:03;2.15;;;0.80;;
55148;SDS011;49539;48.160;11.530;2023-05-10T09:15:28;1.38;;;0.70;;
55148;SDS011;49539;48.160;11.530;2023-05-10T09:17:54;3.05;;;0.70;;
55148;SDS011;49539;48.160;11.530;2023-05-10T09:20:19;0.82;;;0.70;;
55148;SDS011;49539;48.160;11.530;2023-05-10T09:22:45;1.00;;;0.60;;
55148;SDS011;49539;48.160;11.530;2023-05-10T09:25:13;1.20;;;0.57;;
55148;SDS011;49539;48.160;11.530;2023-05-10T09:27:44;0.82;;;0.50;;
55148;SDS011;49539;48.160;11.530;2023-05-10T09:30:10;0.90;;;0.60;;
55148;SDS011;49539;48.160;11.530;2023-05-10T09:32:39;18.42;;;1.17;;
55148;SDS011;49539;48.160;11.530;2023-05-10T09:35:09;1.08;;;0.60;;
55148;SDS011;49539;48.160;11.530;2023-05-10T09:37:34;0.75;;;0.57;;
55148;SDS011;49539;48.160;11.530;2023-05-10T09:40:00;0.82;;;0.65;;
55148;SDS011;49539;48.160;11.530;2023-05-10T09:42:25;1.75;;;0.52;;
55148;SDS011;49539;48.160;11.530;2023-05-10T09:44:51;1.08;;;0.60;;
55148;SDS011;49539;48.160;11.530;2023-05-10T09:47:17;1.08;;;0.52;;
55148;SDS011;49539;48.160;11.530;2023-05-10T09:49:49;1.80;;;0.80;;
55148;SDS011;49539;48.160;11.530;2023-05-10T09:52:14;0.55;;;0.40;;
55148;SDS011;49539;48.160;11.530;2023-05-10T09:54:42;1.60;;;0.90;;
55148;SDS011;49539;48.160;11.530;2023-05-10T09:57:18;1.55;;;0.80;;
55148;SDS011;49539;48.160;11.530;2023-05-10T09:59:44;1.90;;;0.70;;
55148;SDS011;49539;48.160;11.530;2023-05-10T10:02:09;0.77;;;0.50;;
55148;SDS011;49539;48.160;11.530;2023-05-10T10:04:38;1.58;;;0.80;;
55148;SDS011;49539;48.160;11.530;2023-05-10T10:07:04;1.02;;;0.60;;
55148;SDS011;49539;48.160;11.530;2023-05-10T10:09:30;1.23;;;0.82;;
55148;SDS011;49539;48.160;11.530;2023-05-10T10:11:56;2.05;;;0.88;;
55148;SDS011;49539;48.160;11.530;2023-05-10T10:14:24;1.30;;;0.90;;
55148;SDS011;49539;48.160;11.530;2023-05-10T10:16:50;1.30;;;0.55;;
55148;SDS011;49539;48.160;11.530;2023-05-10T10:19:16;1.98;;;1.00;;
55148;SDS011;49539;48.160;11.530;2023-05-10T10:21:42;0.65;;;0.50;;
55148;SDS011;49539;48.160;11.530;2023-05-10T10:24:07;1.05;;;0.55;;
55148;SDS011;49539;48.160;11.530;2023-05-10T10:26:35;2.03;;;0.80;;
55148;SDS011;49539;48.160;11.530;2023-05-10T10:29:12;1.95;;;0.73;;
55148;SDS011;49539;48.160;11.530;2023-05-10T10:34:07;1.10;;;0.60;;
55148;SDS011;49539;48.160;11.530;2023-05-10T10:36:46;1.92;;;0.77;;
55148;SDS011;49539;48.160;11.530;2023-05-10T10:39:12;1.85;;;0.80;;
55148;SDS011;49539;48.160;11.530;2023-05-10T10:41:39;3.40;;;0.82;;
55148;SDS011;49539;48.160;11.530;2023-05-10T10:49:27;1.17;;;0.70;;
55148;SDS011;49539;48.160;11.530;2023-05-10T10:54:37;1.38;;;0.70;;
55148;SDS011;49539;48.160;11.530;2023-05-10T10:57:12;1.42;;;0.88;;
55148;SDS011;49539;48.160;11.530;2023-05-10T10:59:41;0.98;;;0.70;;
55148;SDS011;49539;48.160;11.530;2023-05-10T11:02:07;1.67;;;0.85;;
55148;SDS011;49539;48.160;11.530;2023-05-10T11:04:40;2.20;;;0.90;;
55148;SDS011;49539;48.160;11.530;2023-05-10T11:07:16;2.20;;;0.82;;
55148;SDS011;49539;48.160;11.530;2023-05-10T11:09:41;2.67;;;0.82;;
55148;SDS011;49539;48.160;11.530;2023-05-10T11:12:09;3.72;;;0.93;;
55148;SDS011;49539;48.160;11.530;2023-05-10T11:14:35;0.85;;;0.70;;
55148;SDS011;49539;48.160;11.530;2023-05-10T11:17:00;0.90;;;0.63;;
55148;SDS011;49539;48.160;11.530;2023-05-10T11:19:27;1.35;;;0.80;;
55148;SDS011;49539;48.160;11.530;2023-05-10T11:24:29;1.38;;;0.57;;
55148;SDS011;49539;48.160;11.530;2023-05-10T11:26:55;0.70;;;0.70;;
55148;SDS011;49539;48.160;11.530;2023-05-10T11:29:21;1.58;;;0.80;;
55148;SDS011;49539;48.160;11.530;2023-05-10T11:31:46;1.48;;;0.70;;
55148;SDS011;49539;48.160;11.530;2023-05-10T11:34:25;1.25;;;0.85;;
55148;SDS011;49539;48.160;11.530;2023-05-10T11:36:51;1.83;;;0.80;;
55148;SDS011;49539;48.160;11.530;2023-05-10T11:39:16;1.05;;;0.77;;
55148;SDS011;49539;48.160;11.530;2023-05-10T11:41:42;2.88;;;0.93;;
55148;SDS011;49539;48.160;11.530;2023-05-10T11:44:07;3.65;;;1.30;;
55148;SDS011;49539;48.160;11.530;2023-05-10T11:46:34;3.30;;;1.17;;
55148;SDS011;49539;48.160;11.530;2023-05-10T11:48:59;1.30;;;0.90;;
55148;SDS011;49539;48.160;11.530;2023-05-10T11:51:35;2.20;;;1.27;;
55148;SDS011;49539;48.160;11.530;2023-05-10T11:54:02;1.80;;;0.90;;
55148;SDS011;49539;48.160;11.530;2023-05-10T11:56:29;1.30;;;0.80;;
55148;SDS011;49539;48.160;11.530;2023-05-10T11:58:57;1.33;;;0.70;;
55148;SDS011;49539;48.160;11.530;2023-05-10T12:01:27;1.30;;;0.77;;
55148;SDS011;49539;48.160;11.530;2023-05-10T12:03:53;1.85;;;0.65;;
55148;SDS011;49539;48.160;11.530;2023-05-10T12:06:19;1.85;;;0.98;;
55148;SDS011;49539;48.160;11.530;2023-05-10T12:08:45;2.08;;;0.90;;
55148;SDS011;49539;48.160;11.530;2023-05-10T12:11:18;1.83;;;1.10;;
55148;SDS011;49539;48.160;11.530;2023-05-10T12:13:44;2.80;;;0.90;;
55148;SDS011;49539;48.160;11.530;2023-05-10T12:16:15;2.60;;;0.80;;
55148;SDS011;49539;48.160;11.530;2023-05-10T12:18:44;3.45;;;1.10;;
55148;SDS011;49539;48.160;11.530;2023-05-10T12:21:11;5.10;;;1.38;;
55148;SDS011;49539;48.160;11.530;2023-05-10T12:23:37;2.28;;;1.20;;
55148;SDS011;49539;48.160;11.530;2023-05-10T12:26:02;22.65;;;1.50;;
55148;SDS011;49539;48.160;11.530;2023-05-10T12:28:32;1.80;;;1.30;;
55148;SDS011;49539;48.160;11.530;2023-05-10T12:30:58;2.72;;;1.33;;
55148;SDS011;49539;48.160;11.530;2023-05-10T12:33:24;4.38;;;1.17;;
55148;SDS011;49539;48.160;11.530;2023-05-10T12:35:50;3.05;;;1.23;;
55148;SDS011;49539;48.160;11.530;2023-05-10T12:40:58;2.40;;;1.35;;
55148;SDS011;49539;48.160;11.530;2023-05-10T12:43:23;3.00;;;1.42;;
55148;SDS011;49539;48.160;11.530;2023-05-10T12:45:49;2.10;;;1.15;;
55148;SDS011;49539;48.160;11.530;2023-05-10T12:48:14;1.95;;;1.08;;
55148;SDS011;49539;48.160;11.530;2023-05-10T12:50:40;2.92;;;1.30;;
55148;SDS011;49539;48.160;11.530;2023-05-10T12:53:06;1.85;;;1.00;;
55148;SDS011;49539;48.160;11.530;2023-05-10T12:55:31;1.85;;;0.90;;
55148;SDS011;49539;48.160;11.530;2023-05-10T12:57:56;2.95;;;1.23;;
55148;SDS011;49539;48.160;11.530;2023-05-10T13:00:22;3.10;;;0.80;;
55148;SDS011;49539;48.160;11.530;2023-05-10T13:02:47;0.75;;;0.60;;
55148;SDS011;49539;48.160;11.530;2023-05-10T13:05:12;3.97;;;0.70;;
55148;SDS011;49539;48.160;11.530;2023-05-10T13:07:38;1.50;;;0.90;;
55148;SDS011;49539;48.160;11.530;2023-05-10T13:10:05;1.52;;;0.93;;
55148;SDS011;49539;48.160;11.530;2023-05-10T13:12:30;1.85;;;1.20;;
55148;SDS011;49539;48.160;11.530;2023-05-10T13:14:56;2.67;;;1.00;;
55148;SDS011;49539;48.160;11.530;2023-05-10T13:17:22;4.32;;;0.80;;
55148;SDS011;49539;48.160;11.530;2023-05-10T13:19:47;2.38;;;1.00;;
55148;SDS011;49539;48.160;11.530;2023-05-10T13:22:13;2.08;;;1.00;;
55148;SDS011;49539;48.160;11.530;2023-05-10T13:24:38;1.45;;;1.00;;
55148;SDS011;49539;48.160;11.530;2023-05-10T13:27:04;1.25;;;0.80;;
55148;SDS011;49539;48.160;11.530;2023-05-10T13:29:30;3.45;;;1.35;;
55148;SDS011;49539;48.160;11.530;2023-05-10T13:31:56;2.90;;;1.30;;
55148;SDS011;49539;48.160;11.530;2023-05-10T13:34:22;2.53;;;1.67;;
55148;SDS011;49539;48.160;11.530;2023-05-10T13:36:47;3.30;;;1.80;;
55148;SDS011;49539;48.160;11.530;2023-05-10T13:39:12;3.83;;;1.58;;
55148;SDS011;49539;48.160;11.530;2023-05-10T13:41:38;4.22;;;1.63;;
55148;SDS011;49539;48.160;11.530;2023-05-10T13:44:04;3.08;;;1.73;;
55148;SDS011;49539;48.160;11.530;2023-05-10T13:46:30;2.10;;;1.20;;
55148;SDS011;49539;48.160;11.530;2023-05-10T13:48:56;1.75;;;1.05;;
55148;SDS011;49539;48.160;11.530;2023-05-10T13:51:23;1.73;;;1.00;;
55148;SDS011;49539;48.160;11.530;2023-05-10T13:53:48;2.58;;;1.58;;
55148;SDS011;49539;48.160;11.530;2023-05-10T13:56:13;2.35;;;1.20;;
55148;SDS011;49539;48.160;11.530;2023-05-10T13:58:39;4.13;;;1.73;;
55148;SDS011;49539;48.160;11.530;2023-05-10T14:01:04;2.55;;;1.10;;
55148;SDS011;49539;48.160;11.530;2023-05-10T14:03:30;2.40;;;1.30;;
55148;SDS011;49539;48.160;11.530;2023-05-10T14:05:55;2.05;;;1.00;;
55148;SDS011;49539;48.160;11.530;2023-05-10T14:08:21;3.63;;;1.48;;
55148;SDS011;49539;48.160;11.530;2023-05-10T14:10:46;3.03;;;1.20;;
55148;SDS011;49539;48.160;11.530;2023-05-10T14:13:12;2.85;;;1.00;;
55148;SDS011;49539;48.160;11.530;2023-05-10T14:15:41;2.28;;;1.13;;
55148;SDS011;49539;48.160;11.530;2023-05-10T14:18:06;2.78;;;1.10;;
55148;SDS011;49539;48.160;11.530;2023-05-10T14:20:32;1.85;;;1.15;;
55148;SDS011;49539;48.160;11.530;2023-05-10T14:22:58;2.40;;;1.48;;
55148;SDS011;49539;48.160;11.530;2023-05-10T14:25:24;0.90;;;0.80;;
55148;SDS011;49539;48.160;11.530;2023-05-10T14:27:49;2.33;;;0.80;;
55148;SDS011;49539;48.160;11.530;2023-05-10T14:30:15;1.02;;;0.80;;
55148;SDS011;49539;48.160;11.530;2023-05-10T14:32:40;1.42;;;0.73;;
55148;SDS011;49539;48.160;11.530;2023-05-10T14:35:05;2.58;;;0.82;;
55148;SDS011;49539;48.160;11.530;2023-05-10T14:37:31;2.90;;;1.10;;
55148;SDS011;49539;48.160;11.530;2023-05-10T14:39:56;1.90;;;0.75;;
55148;SDS011;49539;48.160;11.530;2023-05-10T14:42:22;1.00;;;0.90;;
55148;SDS011;49539;48.160;11.530;2023-05-10T14:44:47;3.05;;;1.17;;
55148;SDS011;49539;48.160;11.530;2023-05-10T14:47:13;1.88;;;0.70;;
55148;SDS011;49539;48.160;11.530;2023-05-10T14:49:38;2.55;;;0.90;;
55148;SDS011;49539;48.160;11.530;2023-05-10T14:52:04;2.17;;;0.70;;
55148;SDS011;49539;48.160;11.530;2023-05-10T14:54:29;2.10;;;1.08;;
55148;SDS011;49539;48.160;11.530;2023-05-10T14:56:55;1.85;;;0.88;;
55148;SDS011;49539;48.160;11.530;2023-05-10T14:59:21;1.30;;;0.85;;
55148;SDS011;49539;48.160;11.530;2023-05-10T15:01:46;1.92;;;0.98;;
55148;SDS011;49539;48.160;11.530;2023-05-10T15:04:12;0.90;;;0.75;;
55148;SDS011;49539;48.160;11.530;2023-05-10T15:06:38;0.73;;;0.70;;